Time;durP1;ratioP1;P1;durP2;ratioP2;P2;SDS_P1;SDS_P2;PMS_P1;PMS_P2;Temp;Humidity;BMP_temperature;BMP_pressure;BME280_temperature;BME280_humidity;BME280_pressure;Samples;Min_cycle;Max_cycle;Signal;HPM_P1;HPM_P2
2023/08/07 00:01:23;;;;;;;2.00;1.30;;;18.60;66.30;;;;;;6172418;23;20397;-73
2023/08/07 00:03:52;;;;;;;2.90;1.43;;;18.60;66.30;;;;;;6171305;23;20871;-74
2023/08/07 00:06:20;;;;;;;2.83;1.73;;;18.60;66.20;;;;;;6171231;23;21379;-73
2023/08/07 00:08:51;;;;;;;2.60;1.50;;;18.60;66.30;;;;;;6172591;23;20435;-73
2023/08/07 00:11:19;;;;;;;6.03;1.77;;;18.60;66.20;;;;;;6169742;23;20444;-73
2023/08/07 00:13:47;;;;;;;3.60;1.50;;;18.60;66.30;;;;;;6171083;23;20385;-73
2023/08/07 00:16:16;;;;;;;3.83;1.37;;;18.60;66.30;;;;;;6171788;23;20421;-73
2023/08/07 00:18:44;;;;;;;2.80;1.47;;;18.60;66.30;;;;;;6170931;23;20385;-73
2023/08/07 00:21:13;;;;;;;3.30;1.53;;;18.60;66.20;;;;;;6170647;23;20395;-74
2023/08/07 00:23:41;;;;;;;2.63;1.40;;;18.60;66.30;;;;;;6170791;23;20378;-73
2023/08/07 00:26:11;;;;;;;3.03;1.27;;;18.60;66.30;;;;;;6169782;23;20415;-73
2023/08/07 00:28:39;;;;;;;3.47;2.00;;;18.60;66.30;;;;;;6172345;23;20420;-73
2023/08/07 00:31:07;;;;;;;1.93;1.20;;;18.60;66.10;;;;;;6170419;23;20497;-73
2023/08/07 00:33:36;;;;;;;5.17;1.30;;;18.50;66.10;;;;;;6169633;23;20933;-73
2023/08/07 00:36:05;;;;;;;3.77;1.40;;;18.60;66.20;;;;;;6171424;23;20494;-73
2023/08/07 00:38:33;;;;;;;3.10;1.57;;;18.50;66.10;;;;;;6171168;23;20462;-74
2023/08/07 00:41:01;;;;;;;2.80;1.43;;;18.50;66.00;;;;;;6171341;23;20746;-73
2023/08/07 00:43:31;;;;;;;4.10;2.23;;;18.60;66.20;;;;;;6168677;23;20871;-73
2023/08/07 00:45:59;;;;;;;2.90;1.60;;;18.50;66.10;;;;;;6171979;23;20421;-73
2023/08/07 00:48:28;;;;;;;3.40;1.73;;;18.50;66.00;;;;;;6170529;23;20641;-73
2023/08/07 00:50:57;;;;;;;3.30;1.70;;;18.50;66.10;;;;;;6173195;23;20419;-73
2023/08/07 00:53:26;;;;;;;2.80;2.10;;;18.50;66.10;;;;;;6170941;23;20389;-73
2023/08/07 00:55:54;;;;;;;2.20;1.43;;;18.50;66.10;;;;;;6171685;23;21033;-74
2023/08/07 00:58:23;;;;;;;2.27;1.20;;;18.50;65.90;;;;;;6169709;23;20409;-73
2023/08/07 01:00:52;;;;;;;5.27;1.70;;;18.50;65.90;;;;;;6172527;23;20910;-73
2023/08/07 01:03:21;;;;;;;4.63;1.40;;;18.50;66.00;;;;;;6169634;23;20398;-73
2023/08/07 01:05:50;;;;;;;2.40;1.40;;;18.50;66.10;;;;;;6171047;23;21040;-73
2023/08/07 01:08:20;;;;;;;2.57;1.40;;;18.50;65.90;;;;;;6170717;23;20487;-73
2023/08/07 01:11:05;;;;;;;3.53;1.50;;;18.50;65.90;;;;;;6171501;23;20402;-74
2023/08/07 01:13:46;;;;;;;3.43;1.50;;;18.50;66.00;;;;;;6145360;23;20408;-73
2023/08/07 01:16:22;;;;;;;3.40;1.57;;;18.50;66.00;;;;;;6172158;23;20516;-74
2023/08/07 01:18:51;;;;;;;4.00;1.73;;;18.50;66.10;;;;;;6170716;23;20416;-74
2023/08/07 01:21:20;;;;;;;2.70;1.43;;;18.50;66.00;;;;;;6170351;23;20486;-73
2023/08/07 01:23:50;;;;;;;2.47;1.17;;;18.50;66.10;;;;;;6170511;23;20401;-73
2023/08/07 01:26:20;;;;;;;6.30;1.40;;;18.50;66.10;;;;;;6170622;23;20424;-73
2023/08/07 01:29:10;;;;;;;2.50;1.40;;;18.50;66.00;;;;;;6170766;23;20818;-73
2023/08/07 01:31:41;;;;;;;3.27;1.40;;;18.50;66.00;;;;;;6170139;23;20437;-73
2023/08/07 01:34:14;;;;;;;4.60;1.80;;;18.50;65.80;;;;;;6169499;23;20402;-73
2023/08/07 01:36:43;;;;;;;3.50;1.20;;;18.40;65.80;;;;;;6169238;23;20429;-73
2023/08/07 01:39:14;;;;;;;3.30;1.40;;;18.40;65.70;;;;;;6173009;23;20390;-73
2023/08/07 01:41:42;;;;;;;2.27;1.50;;;18.40;65.90;;;;;;6169087;23;20432;-74
2023/08/07 01:44:11;;;;;;;2.40;1.57;;;18.40;65.90;;;;;;6172527;23;20455;-74
2023/08/07 01:46:39;;;;;;;2.00;1.53;;;18.40;65.90;;;;;;6170818;23;20413;-73
2023/08/07 01:49:08;;;;;;;3.80;1.90;;;18.40;65.90;;;;;;6171681;23;20598;-73
2023/08/07 01:51:36;;;;;;;2.70;1.43;;;18.40;65.80;;;;;;6170222;23;20402;-73
2023/08/07 01:54:04;;;;;;;2.83;1.27;;;18.40;65.80;;;;;;6171679;23;20903;-73
2023/08/07 01:56:34;;;;;;;2.67;1.67;;;18.40;65.80;;;;;;6170720;23;20452;-73
2023/08/07 01:59:03;;;;;;;3.13;1.27;;;18.40;65.70;;;;;;6169962;23;20422;-73
2023/08/07 02:01:31;;;;;;;4.80;1.40;;;18.40;65.80;;;;;;6172365;23;20408;-73
2023/08/07 02:03:59;;;;;;;4.10;2.03;;;18.40;65.70;;;;;;6173650;23;20391;-73
2023/08/07 02:06:28;;;;;;;3.97;1.40;;;18.40;65.70;;;;;;6174449;23;20460;-73
2023/08/07 02:08:57;;;;;;;2.67;1.73;;;18.40;65.70;;;;;;6173623;23;20421;-73
2023/08/07 02:11:26;;;;;;;2.43;1.37;;;18.40;65.70;;;;;;6174448;23;20450;-73
2023/08/07 02:13:57;;;;;;;3.53;1.80;;;18.40;65.60;;;;;;6173946;23;20452;-73
2023/08/07 02:16:26;;;;;;;4.50;1.90;;;18.40;65.60;;;;;;6174490;23;20436;-73
2023/08/07 02:18:54;;;;;;;2.77;1.20;;;18.40;65.70;;;;;;6173747;23;20410;-73
2023/08/07 02:21:23;;;;;;;3.47;1.30;;;18.40;65.70;;;;;;6175901;23;20389;-73
2023/08/07 02:23:51;;;;;;;2.53;1.40;;;18.40;65.70;;;;;;6174187;23;20397;-74
2023/08/07 02:26:19;;;;;;;5.40;1.70;;;18.40;65.60;;;;;;6173858;23;20413;-73
2023/08/07 02:28:48;;;;;;;4.30;1.93;;;18.40;65.60;;;;;;6173345;23;20479;-73
2023/08/07 02:31:17;;;;;;;2.37;1.37;;;18.30;65.30;;;;;;6173715;23;20381;-73
2023/08/07 02:33:46;;;;;;;3.57;1.37;;;18.30;65.60;;;;;;6172970;23;20424;-73
2023/08/07 02:36:14;;;;;;;3.33;1.80;;;18.30;65.60;;;;;;6174206;23;20417;-73
2023/08/07 02:38:43;;;;;;;4.03;1.57;;;18.30;65.60;;;;;;6176138;23;20404;-74
2023/08/07 02:41:11;;;;;;;3.30;1.53;;;18.30;65.50;;;;;;6175882;23;20913;-73
2023/08/07 02:43:39;;;;;;;6.00;1.70;;;18.30;65.50;;;;;;6173719;23;20397;-73
2023/08/07 02:46:08;;;;;;;2.90;1.53;;;18.30;65.50;;;;;;6173004;23;20456;-73
2023/08/07 02:48:39;;;;;;;2.70;1.63;;;18.30;65.60;;;;;;6174906;23;20378;-73
2023/08/07 02:51:09;;;;;;;3.67;1.77;;;18.30;65.60;;;;;;6174689;23;20386;-73
2023/08/07 02:53:37;;;;;;;3.80;1.73;;;18.30;65.70;;;;;;6172908;23;20915;-73
2023/08/07 02:56:06;;;;;;;3.70;1.60;;;18.30;65.50;;;;;;6173216;23;20464;-73
2023/08/07 02:58:34;;;;;;;5.13;1.90;;;18.30;65.60;;;;;;6173728;23;20428;-73
2023/08/07 03:01:05;;;;;;;4.90;1.70;;;18.30;65.50;;;;;;6174602;23;20390;-73
2023/08/07 03:03:34;;;;;;;3.23;1.37;;;18.30;65.60;;;;;;6170439;23;20387;-74
2023/08/07 03:06:04;;;;;;;3.40;1.40;;;18.30;65.60;;;;;;6171266;23;20436;-73
2023/08/07 03:08:33;;;;;;;3.40;1.37;;;18.30;65.50;;;;;;6170926;23;20394;-73
2023/08/07 03:11:01;;;;;;;2.60;1.53;;;18.30;65.50;;;;;;6171571;23;20504;-73
2023/08/07 03:13:30;;;;;;;5.67;1.63;;;18.30;65.50;;;;;;6169329;23;20816;-73
2023/08/07 03:16:01;;;;;;;3.17;1.63;;;18.30;65.50;;;;;;6170985;23;20432;-73
2023/08/07 03:18:30;;;;;;;4.93;2.00;;;18.30;65.50;;;;;;6169976;23;20876;-73
2023/08/07 03:21:00;;;;;;;3.50;1.90;;;18.30;65.60;;;;;;6170915;23;20451;-73
2023/08/07 03:23:30;;;;;;;4.00;2.13;;;18.30;65.50;;;;;;6169825;23;20440;-74
2023/08/07 03:26:05;;;;;;;2.50;1.80;;;18.30;65.60;;;;;;6169153;23;20907;-73
2023/08/07 03:28:38;;;;;;;2.97;1.40;;;18.30;65.70;;;;;;6170630;23;20373;-74
2023/08/07 03:31:07;;;;;;;4.67;1.63;;;18.30;65.70;;;;;;6171376;23;20703;-73
2023/08/07 03:33:37;;;;;;;3.83;1.90;;;18.30;67.00;;;;;;6169822;23;20399;-73
2023/08/07 03:36:06;;;;;;;5.00;2.13;;;18.30;65.70;;;;;;6170334;23;20425;-74
2023/08/07 03:38:36;;;;;;;1.80;1.33;;;18.20;65.60;;;;;;6144615;23;20405;-73
2023/08/07 03:41:05;;;;;;;4.03;1.77;;;18.30;65.90;;;;;;6170046;23;20724;-73
2023/08/07 03:43:34;;;;;;;2.27;1.60;;;18.30;65.90;;;;;;6169556;22;20389;-73
2023/08/07 03:46:03;;;;;;;3.40;1.83;;;18.30;65.90;;;;;;6170658;23;20432;-73
2023/08/07 03:48:32;;;;;;;3.67;1.43;;;18.20;65.80;;;;;;6169686;23;20420;-73
2023/08/07 03:51:04;;;;;;;2.90;1.60;;;18.30;65.90;;;;;;6170227;23;20472;-74
2023/08/07 03:53:37;;;;;;;2.83;1.73;;;18.20;65.80;;;;;;6170506;23;20371;-74
2023/08/07 03:56:06;;;;;;;2.80;1.60;;;18.30;66.00;;;;;;6170662;23;20522;-74
2023/08/07 03:58:36;;;;;;;4.57;1.77;;;18.20;65.90;;;;;;6145977;23;20847;-74
2023/08/07 04:01:04;;;;;;;3.97;2.00;;;18.20;65.80;;;;;;6172337;23;20469;-73
2023/08/07 04:03:33;;;;;;;2.60;1.80;;;18.20;65.90;;;;;;6170303;23;20479;-74
2023/08/07 04:06:01;;;;;;;3.47;1.33;;;18.20;65.80;;;;;;6170104;23;20541;-73
2023/08/07 04:08:30;;;;;;;2.80;1.60;;;18.20;65.80;;;;;;6171692;23;20382;-73
2023/08/07 04:11:01;;;;;;;4.40;1.83;;;18.20;65.90;;;;;;6171048;23;20505;-73
2023/08/07 04:13:30;;;;;;;1.87;1.50;;;18.20;65.90;;;;;;6169233;23;20862;-73
2023/08/07 04:16:00;;;;;;;2.00;1.30;;;18.20;65.90;;;;;;6171214;23;20527;-73
2023/08/07 04:18:30;;;;;;;2.43;1.57;;;18.20;65.80;;;;;;6170046;23;20380;-73
2023/08/07 04:21:01;;;;;;;4.87;2.07;;;18.20;65.80;;;;;;6145145;23;20413;-73
2023/08/07 04:23:31;;;;;;;4.03;1.80;;;18.20;65.80;;;;;;6170079;23;20396;-73
2023/08/07 04:26:01;;;;;;;2.90;1.50;;;18.20;65.80;;;;;;6170020;23;20417;-73
2023/08/07 04:28:29;;;;;;;3.10;1.40;;;18.20;65.70;;;;;;6169883;23;20798;-73
2023/08/07 04:30:58;;;;;;;2.90;1.73;;;18.20;65.80;;;;;;6170265;23;20413;-73
2023/08/07 04:33:26;;;;;;;3.20;1.53;;;18.20;65.80;;;;;;6170306;23;20401;-74
2023/08/07 04:35:55;;;;;;;3.53;2.00;;;18.20;65.70;;;;;;6172169;23;20409;-73
2023/08/07 04:38:23;;;;;;;1.77;1.07;;;18.10;65.80;;;;;;6171828;23;20853;-73
2023/08/07 04:40:51;;;;;;;2.07;1.53;;;18.10;65.80;;;;;;6171071;23;20867;-73
2023/08/07 04:43:21;;;;;;;4.43;1.50;;;18.10;65.90;;;;;;6171523;23;20401;-73
2023/08/07 04:45:50;;;;;;;3.40;1.43;;;18.10;65.80;;;;;;6171837;23;20503;-73
2023/08/07 04:48:20;;;;;;;2.63;1.53;;;18.10;65.80;;;;;;6173095;23;20416;-73
2023/08/07 04:50:49;;;;;;;2.70;1.50;;;18.10;65.80;;;;;;6172639;23;20459;-73
2023/08/07 04:53:18;;;;;;;2.10;1.57;;;18.20;66.00;;;;;;6172536;23;20416;-73
2023/08/07 04:55:47;;;;;;;3.37;1.50;;;18.10;65.80;;;;;;6170697;23;20419;-73
2023/08/07 04:58:15;;;;;;;3.73;2.33;;;18.10;65.60;;;;;;6170917;23;20424;-73
2023/08/07 05:00:45;;;;;;;2.50;1.57;;;18.10;65.60;;;;;;6171004;23;20742;-74
2023/08/07 05:03:15;;;;;;;2.43;1.23;;;18.10;65.60;;;;;;6170121;23;20417;-74
2023/08/07 05:05:44;;;;;;;4.83;1.80;;;18.10;65.80;;;;;;6171093;23;20414;-74
2023/08/07 05:08:12;;;;;;;3.47;1.50;;;18.10;65.60;;;;;;6170671;23;20436;-73
2023/08/07 05:10:40;;;;;;;3.93;1.70;;;18.10;65.70;;;;;;6172261;23;20461;-73
2023/08/07 05:13:09;;;;;;;4.17;1.40;;;18.10;65.50;;;;;;6169426;23;20444;-73
2023/08/07 05:15:37;;;;;;;3.67;1.83;;;18.10;65.70;;;;;;6171758;23;20429;-73
2023/08/07 05:18:07;;;;;;;6.80;2.20;;;18.10;65.40;;;;;;6171441;23;20429;-73
2023/08/07 05:20:36;;;;;;;5.30;1.70;;;18.10;65.40;;;;;;6171148;23;20451;-74
2023/08/07 05:23:04;;;;;;;5.77;1.67;;;18.10;65.60;;;;;;6144598;22;20440;-73
2023/08/07 05:25:32;;;;;;;2.23;1.33;;;18.00;65.50;;;;;;6172035;23;20417;-74
2023/08/07 05:28:01;;;;;;;4.57;1.70;;;18.00;65.40;;;;;;6171443;22;20440;-73
2023/08/07 05:30:29;;;;;;;3.63;1.80;;;18.10;65.50;;;;;;6171798;23;20758;-73
2023/08/07 05:32:58;;;;;;;1.80;1.30;;;18.00;65.40;;;;;;6169450;23;21037;-74
2023/08/07 05:35:27;;;;;;;2.67;1.47;;;18.00;65.30;;;;;;6170254;23;20424;-73
2023/08/07 05:37:56;;;;;;;3.63;1.30;;;18.00;65.50;;;;;;6170173;23;20448;-74
2023/08/07 05:40:24;;;;;;;2.43;1.70;;;18.00;65.40;;;;;;6172380;23;20489;-74
2023/08/07 05:42:52;;;;;;;3.63;1.50;;;18.00;65.40;;;;;;6169515;23;20436;-73
2023/08/07 05:45:21;;;;;;;3.27;1.27;;;18.00;65.50;;;;;;6170500;23;20899;-73
2023/08/07 05:47:49;;;;;;;3.17;1.73;;;18.00;65.30;;;;;;6170133;23;20433;-73
2023/08/07 05:50:18;;;;;;;4.73;2.07;;;18.00;65.40;;;;;;6170630;23;20442;-73
2023/08/07 05:52:47;;;;;;;3.30;1.50;;;18.00;65.30;;;;;;6169370;23;20437;-73
2023/08/07 05:55:16;;;;;;;2.63;1.23;;;18.00;65.30;;;;;;6171493;23;20432;-74
2023/08/07 05:57:44;;;;;;;2.40;1.60;;;18.00;65.30;;;;;;6170184;23;20433;-74
2023/08/07 06:00:17;;;;;;;2.90;1.47;;;18.00;65.40;;;;;;6172186;23;20444;-73
2023/08/07 06:02:46;;;;;;;2.20;1.37;;;18.00;65.30;;;;;;6169636;23;20439;-73
2023/08/07 06:05:16;;;;;;;3.43;1.43;;;18.00;65.40;;;;;;6171348;23;20429;-74
2023/08/07 06:07:44;;;;;;;3.23;1.90;;;18.00;65.20;;;;;;6170619;23;20950;-74
2023/08/07 06:10:14;;;;;;;2.60;1.57;;;18.00;65.40;;;;;;6172483;23;20397;-73
2023/08/07 06:12:42;;;;;;;2.17;1.23;;;18.00;65.40;;;;;;6145148;22;20443;-73
2023/08/07 06:15:11;;;;;;;2.80;1.40;;;18.00;65.50;;;;;;6170051;23;21006;-74
2023/08/07 06:17:40;;;;;;;2.80;1.60;;;18.00;65.40;;;;;;6170399;22;20445;-73
2023/08/07 06:20:12;;;;;;;3.27;2.00;;;18.00;66.80;;;;;;6170461;23;20390;-74
2023/08/07 06:22:46;;;;;;;2.00;1.40;;;18.00;65.30;;;;;;6170895;22;20494;-73
2023/08/07 06:25:16;;;;;;;4.70;1.60;;;18.00;65.40;;;;;;6170747;23;20413;-73
2023/08/07 06:27:45;;;;;;;3.23;1.70;;;18.00;65.40;;;;;;6169589;23;20440;-73
2023/08/07 06:30:15;;;;;;;2.20;1.17;;;18.00;65.40;;;;;;6170519;23;20416;-73
2023/08/07 06:32:43;;;;;;;2.80;1.67;;;18.00;65.40;;;;;;6169987;23;20551;-73
2023/08/07 06:35:11;;;;;;;3.63;1.80;;;18.00;65.50;;;;;;6169969;23;20717;-74
2023/08/07 06:37:40;;;;;;;3.10;1.50;;;18.00;65.50;;;;;;6170193;23;20958;-74
2023/08/07 06:40:09;;;;;;;4.57;1.50;;;18.00;65.70;;;;;;6173699;23;20698;-73
2023/08/07 06:42:39;;;;;;;3.50;1.80;;;18.00;65.60;;;;;;6171059;22;20438;-73
2023/08/07 06:45:08;;;;;;;3.43;1.50;;;18.00;65.60;;;;;;6171597;23;20406;-73
2023/08/07 06:47:37;;;;;;;4.47;1.50;;;17.90;65.50;;;;;;6170243;23;20791;-74
2023/08/07 06:50:06;;;;;;;2.00;1.50;;;17.90;65.60;;;;;;6169480;23;20461;-74
2023/08/07 06:52:34;;;;;;;2.63;1.30;;;17.90;65.60;;;;;;6168738;23;20938;-74
2023/08/07 06:55:02;;;;;;;3.37;1.70;;;17.90;65.60;;;;;;6170413;23;20401;-73
2023/08/07 06:57:31;;;;;;;2.70;1.37;;;17.90;65.50;;;;;;6169774;23;20444;-74
2023/08/07 07:00:01;;;;;;;2.07;1.40;;;17.90;65.70;;;;;;6172701;23;20877;-73
2023/08/07 07:02:29;;;;;;;2.30;1.30;;;17.90;65.70;;;;;;6171254;23;20926;-74
2023/08/07 07:04:57;;;;;;;2.17;1.30;;;17.90;65.70;;;;;;6170421;23;20405;-73
2023/08/07 07:07:26;;;;;;;3.73;1.50;;;17.90;65.70;;;;;;6169354;23;20441;-73
2023/08/07 07:09:54;;;;;;;3.93;1.57;;;17.90;65.60;;;;;;6171229;23;20381;-74
2023/08/07 07:12:23;;;;;;;3.93;1.90;;;17.90;65.70;;;;;;6170096;23;20445;-74
2023/08/07 07:14:51;;;;;;;2.00;1.23;;;17.90;65.70;;;;;;6171606;23;20769;-74
2023/08/07 07:17:21;;;;;;;3.20;2.07;;;17.90;65.70;;;;;;6172185;22;20931;-74
2023/08/07 07:19:49;;;;;;;4.33;2.43;;;17.90;65.80;;;;;;6170355;23;20424;-73
2023/08/07 07:22:17;;;;;;;2.40;1.13;;;17.90;65.80;;;;;;6169539;23;20444;-73
2023/08/07 07:24:46;;;;;;;2.80;1.67;;;17.90;65.80;;;;;;6170687;23;20401;-73
2023/08/07 07:27:14;;;;;;;2.63;1.70;;;17.90;65.80;;;;;;6167445;23;20449;-75
2023/08/07 07:29:42;;;;;;;6.07;1.63;;;17.90;65.70;;;;;;6170778;23;20840;-74
2023/08/07 07:32:11;;;;;;;4.20;2.20;;;18.10;65.70;;;;;;6167724;23;20449;-73
2023/08/07 07:34:41;;;;;;;7.70;2.33;;;17.70;66.50;;;;;;6168819;23;20417;-73
2023/08/07 07:37:09;;;;;;;6.73;2.53;;;17.60;67.00;;;;;;6169926;23;20884;-73
2023/08/07 07:39:38;;;;;;;6.67;1.87;;;17.60;67.30;;;;;;6171243;23;20405;-74
2023/08/07 07:42:07;;;;;;;3.67;1.73;;;17.60;67.20;;;;;;6170661;23;20389;-73
2023/08/07 07:44:36;;;;;;;4.77;2.37;;;17.60;66.90;;;;;;6170418;23;20723;-74
2023/08/07 07:47:05;;;;;;;5.40;2.17;;;17.70;66.90;;;;;;6169156;23;20780;-73
2023/08/07 07:49:34;;;;;;;4.30;2.00;;;17.70;66.70;;;;;;6169104;23;20399;-73
2023/08/07 07:52:04;;;;;;;4.60;2.20;;;17.70;66.60;;;;;;6168250;23;20429;-73
2023/08/07 07:54:32;;;;;;;6.47;2.00;;;17.70;66.50;;;;;;6169915;23;20382;-73
2023/08/07 07:57:01;;;;;;;5.60;2.37;;;17.80;66.50;;;;;;6168953;23;20931;-73
2023/08/07 07:59:29;;;;;;;5.20;2.03;;;17.80;66.60;;;;;;6170253;23;20401;-74
2023/08/07 08:01:57;;;;;;;2.17;1.67;;;17.70;66.30;;;;;;6170218;23;20389;-74
2023/08/07 08:04:27;;;;;;;3.27;1.60;;;17.80;66.40;;;;;;6169519;23;20400;-74
2023/08/07 08:06:56;;;;;;;4.77;2.27;;;17.80;66.40;;;;;;6170594;23;20433;-73
2023/08/07 08:09:26;;;;;;;4.50;2.10;;;17.80;66.30;;;;;;6171860;23;20442;-74
2023/08/07 08:11:54;;;;;;;5.50;2.50;;;17.80;66.30;;;;;;6170451;23;20424;-74
2023/08/07 08:14:26;;;;;;;4.50;2.17;;;17.80;66.30;;;;;;6171478;23;20720;-74
2023/08/07 08:16:54;;;;;;;3.93;1.80;;;17.80;66.30;;;;;;6172178;23;20400;-73
2023/08/07 08:19:23;;;;;;;3.00;2.00;;;17.80;66.30;;;;;;6172294;23;21066;-73
2023/08/07 08:21:54;;;;;;;2.30;1.43;;;17.80;66.30;;;;;;6172634;23;20425;-74
2023/08/07 08:24:23;;;;;;;3.83;2.30;;;17.80;66.30;;;;;;6172043;23;20871;-73
2023/08/07 08:26:52;;;;;;;2.57;1.80;;;17.80;66.30;;;;;;6172122;23;20377;-74
2023/08/07 08:29:21;;;;;;;3.47;1.90;;;17.80;66.30;;;;;;6170868;23;20407;-74
2023/08/07 08:31:52;;;;;;;4.60;1.63;;;17.80;66.30;;;;;;6172221;22;21336;-73
2023/08/07 08:34:21;;;;;;;2.30;1.90;;;17.80;66.30;;;;;;6171413;23;20740;-74
2023/08/07 08:36:49;;;;;;;5.00;1.83;;;17.80;66.40;;;;;;6171804;23;20433;-73
2023/08/07 08:39:18;;;;;;;3.60;2.00;;;17.80;66.40;;;;;;6172525;23;20397;-73
2023/08/07 08:41:48;;;;;;;3.17;1.60;;;17.80;66.30;;;;;;6170366;23;20440;-73
2023/08/07 08:44:20;;;;;;;4.80;2.60;;;17.80;66.40;;;;;;6171700;23;20378;-73
2023/08/07 08:46:53;;;;;;;4.00;1.87;;;17.80;66.50;;;;;;6171968;23;20441;-73
2023/08/07 08:49:33;;;;;;;5.63;1.60;;;17.80;66.40;;;;;;6171091;23;20381;-74
2023/08/07 08:52:03;;;;;;;4.07;1.40;;;17.80;66.40;;;;;;6170566;23;20695;-73
2023/08/07 08:54:32;;;;;;;3.43;2.07;;;17.80;66.30;;;;;;6170958;23;20759;-73
2023/08/07 08:57:00;;;;;;;3.50;2.30;;;17.80;66.40;;;;;;6170035;23;20843;-73
2023/08/07 08:59:31;;;;;;;3.53;2.37;;;17.80;66.30;;;;;;6169832;23;20435;-73
2023/08/07 09:02:00;;;;;;;5.13;2.23;;;17.80;66.40;;;;;;6169789;23;20441;-74
2023/08/07 09:04:28;;;;;;;2.67;1.57;;;17.80;66.30;;;;;;6171207;23;20424;-73
2023/08/07 09:06:56;;;;;;;2.43;1.73;;;17.80;66.30;;;;;;6171102;23;20441;-73
2023/08/07 09:09:25;;;;;;;2.87;1.83;;;17.80;66.30;;;;;;6173335;23;20942;-73
2023/08/07 09:11:55;;;;;;;5.33;1.80;;;17.80;66.30;;;;;;6170758;23;20540;-73
2023/08/07 09:14:31;;;;;;;4.30;1.90;;;17.80;66.50;;;;;;6169120;23;20946;-73
2023/08/07 09:17:02;;;;;;;2.70;2.03;;;17.80;66.40;;;;;;6170998;23;20519;-74
2023/08/07 09:19:31;;;;;;;4.23;2.10;;;17.80;66.30;;;;;;6172313;23;20405;-73
2023/08/07 09:21:59;;;;;;;3.57;2.17;;;17.80;66.20;;;;;;6169921;23;20925;-73
2023/08/07 09:24:28;;;;;;;2.73;1.43;;;17.80;66.10;;;;;;6171855;23;20705;-73
2023/08/07 09:26:58;;;;;;;3.33;1.93;;;17.80;66.20;;;;;;6169126;23;20956;-74
2023/08/07 09:29:28;;;;;;;4.47;1.77;;;17.80;66.10;;;;;;6171312;23;20369;-73
2023/08/07 09:31:56;;;;;;;2.70;2.00;;;17.80;66.00;;;;;;6169832;23;20498;-73
2023/08/07 09:34:26;;;;;;;3.10;1.40;;;17.80;66.10;;;;;;6170693;23;20934;-73
2023/08/07 09:36:54;;;;;;;3.83;1.83;;;17.80;66.00;;;;;;6172017;23;20734;-73
2023/08/07 09:39:26;;;;;;;4.70;2.13;;;17.80;66.00;;;;;;6172182;23;20397;-73
2023/08/07 09:41:57;;;;;;;4.77;1.90;;;17.80;66.00;;;;;;6170812;23;20740;-73
2023/08/07 09:44:26;;;;;;;2.40;1.70;;;17.80;65.80;;;;;;6170497;23;20412;-73
2023/08/07 09:46:54;;;;;;;2.70;1.80;;;17.80;65.70;;;;;;6171934;23;20734;-73
2023/08/07 09:49:23;;;;;;;5.57;2.23;;;17.80;65.80;;;;;;6171005;23;20386;-73
2023/08/07 09:51:53;;;;;;;2.77;2.03;;;17.80;65.80;;;;;;6171967;23;20438;-73
2023/08/07 09:54:21;;;;;;;3.07;1.97;;;17.80;65.80;;;;;;6173668;23;20918;-73
2023/08/07 09:56:49;;;;;;;4.93;1.97;;;17.80;65.90;;;;;;6171995;23;20389;-73
2023/08/07 09:59:18;;;;;;;2.73;1.63;;;17.80;65.90;;;;;;6171187;23;20417;-73
2023/08/07 10:01:46;;;;;;;2.67;1.63;;;17.80;65.90;;;;;;6170925;23;20390;-73
2023/08/07 10:04:15;;;;;;;3.40;1.60;;;17.80;67.10;;;;;;6146206;23;20386;-73
2023/08/07 10:06:45;;;;;;;5.70;1.73;;;17.80;65.90;;;;;;6171158;23;20429;-73
2023/08/07 10:09:14;;;;;;;4.07;1.93;;;17.80;65.80;;;;;;6146427;23;20397;-73
2023/08/07 10:11:43;;;;;;;3.10;2.13;;;17.80;65.90;;;;;;6171021;23;20413;-73
2023/08/07 10:14:14;;;;;;;2.50;1.93;;;17.80;65.90;;;;;;6170878;23;20444;-73
2023/08/07 10:16:43;;;;;;;3.00;1.60;;;17.80;65.80;;;;;;6170502;23;20506;-73
2023/08/07 10:19:14;;;;;;;4.37;2.03;;;17.80;65.80;;;;;;6170137;23;20394;-73
2023/08/07 10:21:44;;;;;;;3.50;2.13;;;17.80;65.80;;;;;;6171315;23;20908;-73
2023/08/07 10:24:14;;;;;;;2.13;1.53;;;17.80;65.80;;;;;;6170377;23;20436;-73
2023/08/07 10:26:46;;;;;;;3.23;1.70;;;17.80;65.80;;;;;;6169796;23;20443;-73
2023/08/07 10:29:18;;;;;;;3.97;1.80;;;17.80;65.70;;;;;;6170440;23;20447;-73
2023/08/07 10:31:49;;;;;;;5.50;2.23;;;17.80;65.60;;;;;;6169503;23;20389;-73
2023/08/07 10:34:18;;;;;;;2.43;1.40;;;17.80;65.60;;;;;;6170100;23;20441;-73
2023/08/07 10:36:46;;;;;;;2.27;1.53;;;17.80;65.70;;;;;;6170583;23;20490;-74
2023/08/07 10:39:17;;;;;;;2.17;1.63;;;17.80;65.70;;;;;;6170600;23;20739;-73
2023/08/07 10:41:47;;;;;;;3.50;1.97;;;17.90;65.70;;;;;;6145954;23;20424;-74
2023/08/07 10:44:20;;;;;;;4.63;1.80;;;17.80;65.70;;;;;;6144639;22;20733;-73
2023/08/07 10:46:50;;;;;;;2.57;1.70;;;17.80;65.70;;;;;;6171270;23;20389;-73
2023/08/07 10:49:36;;;;;;;4.03;1.70;;;17.80;65.60;;;;;;6169507;23;20393;-73
2023/08/07 10:52:13;;;;;;;3.13;1.73;;;17.80;65.70;;;;;;6168727;23;20541;-73
2023/08/07 10:54:47;;;;;;;4.63;2.17;;;17.80;65.60;;;;;;6172570;23;20436;-73
2023/08/07 10:57:16;;;;;;;2.47;1.73;;;17.80;65.50;;;;;;6169875;23;20817;-73
2023/08/07 10:59:51;;;;;;;8.93;2.50;;;17.80;65.60;;;;;;6171101;23;20447;-72
2023/08/07 11:02:27;;;;;;;6.03;2.30;;;18.00;63.70;;;;;;6169389;23;20489;-73
2023/08/07 11:04:55;;;;;;;3.93;2.30;;;17.90;64.10;;;;;;6168803;23;20899;-73
2023/08/07 11:07:25;;;;;;;3.50;1.80;;;17.90;64.40;;;;;;6171532;22;20559;-73
2023/08/07 11:09:56;;;;;;;2.87;1.70;;;17.80;64.50;;;;;;6170738;23;20388;-73
2023/08/07 11:12:26;;;;;;;4.20;2.00;;;17.80;64.70;;;;;;6167717;23;20444;-73
2023/08/07 11:14:56;;;;;;;2.10;1.67;;;17.90;64.70;;;;;;6171137;23;20440;-73
2023/08/07 11:17:26;;;;;;;2.87;1.50;;;17.80;64.60;;;;;;6170356;23;20440;-73
2023/08/07 11:19:55;;;;;;;2.90;1.73;;;17.90;64.60;;;;;;6169867;23;20434;-73
2023/08/07 11:22:23;;;;;;;4.40;1.73;;;17.90;64.70;;;;;;6168405;23;20534;-73
2023/08/07 11:24:52;;;;;;;2.87;1.57;;;17.80;64.60;;;;;;6172322;23;20405;-73
2023/08/07 11:27:23;;;;;;;3.33;2.00;;;17.80;64.70;;;;;;6169891;23;20502;-73
2023/08/07 11:29:52;;;;;;;3.50;1.83;;;17.80;64.70;;;;;;6171037;23;20725;-73
2023/08/07 11:32:22;;;;;;;2.57;1.40;;;17.80;64.70;;;;;;6168544;23;20429;-73
2023/08/07 11:34:51;;;;;;;3.27;1.87;;;17.90;64.90;;;;;;6170137;23;20436;-73
2023/08/07 11:37:20;;;;;;;3.30;1.40;;;17.80;64.70;;;;;;6170064;23;20772;-73
2023/08/07 11:39:49;;;;;;;3.30;2.10;;;17.80;64.70;;;;;;6169846;23;20736;-73
2023/08/07 11:42:17;;;;;;;3.37;1.60;;;17.90;64.80;;;;;;6170342;23;20949;-73
2023/08/07 11:44:47;;;;;;;2.77;1.73;;;17.90;64.70;;;;;;6172611;23;20413;-73
2023/08/07 11:47:17;;;;;;;3.07;1.40;;;17.80;64.60;;;;;;6172687;23;20386;-73
2023/08/07 11:49:46;;;;;;;3.40;1.80;;;17.80;64.70;;;;;;6171504;23;20385;-73
2023/08/07 11:52:16;;;;;;;2.63;1.60;;;17.80;64.60;;;;;;6169696;23;20381;-73
2023/08/07 11:54:49;;;;;;;3.50;1.97;;;17.80;64.70;;;;;;6173668;23;20544;-73
2023/08/07 11:57:18;;;;;;;2.70;1.63;;;17.80;64.80;;;;;;6172394;23;20376;-73
2023/08/07 11:59:54;;;;;;;3.60;1.63;;;17.80;64.80;;;;;;6169356;23;20656;-74
2023/08/07 12:02:26;;;;;;;2.57;1.80;;;17.80;64.90;;;;;;6172128;23;20432;-73
2023/08/07 12:04:59;;;;;;;4.07;2.20;;;17.80;64.80;;;;;;6146446;23;20421;-73
2023/08/07 12:07:29;;;;;;;3.10;1.83;;;17.80;64.90;;;;;;6171327;23;20440;-73
2023/08/07 12:10:03;;;;;;;3.33;1.70;;;17.80;64.90;;;;;;6171867;23;20373;-73
2023/08/07 12:12:34;;;;;;;2.77;1.63;;;17.80;64.90;;;;;;6170184;23;20432;-73
2023/08/07 12:15:05;;;;;;;2.80;1.73;;;17.80;64.90;;;;;;6171240;23;20736;-73
2023/08/07 12:17:34;;;;;;;4.30;1.83;;;17.90;64.90;;;;;;6169723;23;20444;-73
2023/08/07 12:20:06;;;;;;;2.20;1.60;;;17.90;65.00;;;;;;6171216;23;20440;-73
2023/08/07 12:22:36;;;;;;;3.67;1.97;;;17.90;64.90;;;;;;6170788;23;20469;-73
2023/08/07 12:25:06;;;;;;;3.10;1.63;;;17.90;64.90;;;;;;6172331;23;20405;-73
2023/08/07 12:27:34;;;;;;;2.73;1.80;;;17.80;64.80;;;;;;6171431;23;20441;-73
2023/08/07 12:30:04;;;;;;;2.50;1.90;;;17.90;65.00;;;;;;6146716;23;20394;-73
2023/08/07 12:32:33;;;;;;;3.37;2.03;;;17.90;64.90;;;;;;6171177;23;20529;-73
2023/08/07 12:35:01;;;;;;;2.70;1.70;;;17.90;65.10;;;;;;6171634;23;20773;-73
2023/08/07 12:37:32;;;;;;;4.60;1.90;;;17.90;65.10;;;;;;6170769;23;20428;-73
2023/08/07 12:40:01;;;;;;;3.10;1.50;;;17.90;65.10;;;;;;6171948;23;20439;-73
2023/08/07 12:42:32;;;;;;;2.60;1.60;;;17.90;65.20;;;;;;6170405;23;20796;-73
2023/08/07 12:45:00;;;;;;;3.73;2.30;;;17.90;65.20;;;;;;6171767;23;20529;-73
2023/08/07 12:47:30;;;;;;;4.23;2.43;;;17.90;65.20;;;;;;6146107;22;20437;-73
2023/08/07 12:49:59;;;;;;;4.00;2.20;;;17.90;65.10;;;;;;6170479;23;20381;-73
2023/08/07 12:52:28;;;;;;;3.27;2.50;;;17.90;65.20;;;;;;6169304;23;20425;-73
2023/08/07 12:54:56;;;;;;;5.93;4.10;;;17.90;65.20;;;;;;6171281;23;20745;-73
2023/08/07 12:57:25;;;;;;;2.97;2.47;;;17.90;65.20;;;;;;6170734;23;20433;-73
2023/08/07 12:59:55;;;;;;;6.30;2.90;;;17.90;65.20;;;;;;6171978;23;20393;-73